KJST

John Murtha Johnstown-Cambria County Airport

Airport
ICAO code
KJST
IATA Code
JST
Summary
ICAO Region
NAM
ICAO Territory
Location

Johnstown, Pennsylvania

Serving
Johnstown
Elevation
2284 ft
Coordinates
40° 18' 58" N , 78° 50' 2" W
KCC
Airport WX
Cumulonimbus
Metar
KJST 181617Z AUTO VRB03KT 10SM FEW020 BKN027 BKN033 22/15 A3008 RMK AO2 T02170150

John Murtha Johnstown–Cambria County Airport is a joint civil-military (ANG) public use airport located 3 nm northeast of the central business district of Johnstown, a city in Cambria County, Pennsylvania, USA.

 

Airport map

Aerial View

SKYbrary Partners:

Safety knowledge contributed by: